sensor_id;sensor_type;location;lat;lon;timestamp;P1;durP1;ratioP1;P2;durP2;ratioP2
703;SDS011;335;48.694;9.120;2022-11-13T00:01:07;12.80;;;11.60;;
703;SDS011;335;48.694;9.120;2022-11-13T00:03:34;14.02;;;12.68;;
703;SDS011;335;48.694;9.120;2022-11-13T00:06:02;11.63;;;10.53;;
703;SDS011;335;48.694;9.120;2022-11-13T00:08:28;13.30;;;11.95;;
703;SDS011;335;48.694;9.120;2022-11-13T00:11:03;14.23;;;12.97;;
703;SDS011;335;48.694;9.120;2022-11-13T00:13:33;13.52;;;12.13;;
703;SDS011;335;48.694;9.120;2022-11-13T00:15:59;12.70;;;11.60;;
703;SDS011;335;48.694;9.120;2022-11-13T00:18:26;13.35;;;12.00;;
703;SDS011;335;48.694;9.120;2022-11-13T00:20:53;14.27;;;12.57;;
703;SDS011;335;48.694;9.120;2022-11-13T00:23:19;13.00;;;11.77;;
703;SDS011;335;48.694;9.120;2022-11-13T00:25:44;12.20;;;11.07;;
703;SDS011;335;48.694;9.120;2022-11-13T00:28:10;12.33;;;11.10;;
703;SDS011;335;48.694;9.120;2022-11-13T00:30:35;11.33;;;10.30;;
703;SDS011;335;48.694;9.120;2022-11-13T00:33:00;13.13;;;11.90;;
703;SDS011;335;48.694;9.120;2022-11-13T00:35:26;11.77;;;10.67;;
703;SDS011;335;48.694;9.120;2022-11-13T00:37:51;14.20;;;12.83;;
703;SDS011;335;48.694;9.120;2022-11-13T00:40:16;12.50;;;11.20;;
703;SDS011;335;48.694;9.120;2022-11-13T00:42:42;11.37;;;10.23;;
703;SDS011;335;48.694;9.120;2022-11-13T00:45:07;11.17;;;10.07;;
703;SDS011;335;48.694;9.120;2022-11-13T00:47:33;12.40;;;11.20;;
703;SDS011;335;48.694;9.120;2022-11-13T00:49:58;11.07;;;10.17;;
703;SDS011;335;48.694;9.120;2022-11-13T00:52:24;11.57;;;10.57;;
703;SDS011;335;48.694;9.120;2022-11-13T00:54:49;11.60;;;10.60;;
703;SDS011;335;48.694;9.120;2022-11-13T00:57:14;10.67;;;9.67;;
703;SDS011;335;48.694;9.120;2022-11-13T00:59:40;12.10;;;10.90;;
703;SDS011;335;48.694;9.120;2022-11-13T01:02:05;11.60;;;10.40;;
703;SDS011;335;48.694;9.120;2022-11-13T01:04:30;12.30;;;11.07;;
703;SDS011;335;48.694;9.120;2022-11-13T01:06:56;12.13;;;10.90;;
703;SDS011;335;48.694;9.120;2022-11-13T01:09:21;10.13;;;9.20;;
703;SDS011;335;48.694;9.120;2022-11-13T01:11:46;9.50;;;8.67;;
703;SDS011;335;48.694;9.120;2022-11-13T01:14:12;10.47;;;9.43;;
703;SDS011;335;48.694;9.120;2022-11-13T01:16:37;9.37;;;8.40;;
703;SDS011;335;48.694;9.120;2022-11-13T01:19:02;8.77;;;7.93;;
703;SDS011;335;48.694;9.120;2022-11-13T01:21:28;10.20;;;9.20;;
703;SDS011;335;48.694;9.120;2022-11-13T01:23:54;10.77;;;9.83;;
703;SDS011;335;48.694;9.120;2022-11-13T01:26:24;11.00;;;9.85;;
703;SDS011;335;48.694;9.120;2022-11-13T01:28:53;10.05;;;9.15;;
703;SDS011;335;48.694;9.120;2022-11-13T01:31:22;13.35;;;10.32;;
703;SDS011;335;48.694;9.120;2022-11-13T01:33:48;10.80;;;9.63;;
703;SDS011;335;48.694;9.120;2022-11-13T01:36:15;10.77;;;9.70;;
703;SDS011;335;48.694;9.120;2022-11-13T01:38:43;10.50;;;9.50;;
703;SDS011;335;48.694;9.120;2022-11-13T01:41:16;10.73;;;9.73;;
703;SDS011;335;48.694;9.120;2022-11-13T01:43:43;20.50;;;10.52;;
703;SDS011;335;48.694;9.120;2022-11-13T01:48:44;10.18;;;9.15;;
703;SDS011;335;48.694;9.120;2022-11-13T01:51:13;10.95;;;9.85;;
703;SDS011;335;48.694;9.120;2022-11-13T01:53:42;8.77;;;8.00;;
703;SDS011;335;48.694;9.120;2022-11-13T01:56:10;11.85;;;9.30;;
703;SDS011;335;48.694;9.120;2022-11-13T01:58:37;10.98;;;9.23;;
703;SDS011;335;48.694;9.120;2022-11-13T02:01:04;8.63;;;7.78;;
703;SDS011;335;48.694;9.120;2022-11-13T02:03:29;10.27;;;9.23;;
703;SDS011;335;48.694;9.120;2022-11-13T02:05:54;9.30;;;8.33;;
703;SDS011;335;48.694;9.120;2022-11-13T02:08:20;9.27;;;8.33;;
703;SDS011;335;48.694;9.120;2022-11-13T02:10:45;11.03;;;9.87;;
703;SDS011;335;48.694;9.120;2022-11-13T02:13:11;10.23;;;9.10;;
703;SDS011;335;48.694;9.120;2022-11-13T02:15:37;8.23;;;7.50;;
703;SDS011;335;48.694;9.120;2022-11-13T02:18:02;12.20;;;11.03;;
703;SDS011;335;48.694;9.120;2022-11-13T02:20:34;10.80;;;9.90;;
703;SDS011;335;48.694;9.120;2022-11-13T02:25:37;9.90;;;9.00;;
703;SDS011;335;48.694;9.120;2022-11-13T02:28:03;9.80;;;9.00;;
703;SDS011;335;48.694;9.120;2022-11-13T02:30:30;9.03;;;8.20;;
703;SDS011;335;48.694;9.120;2022-11-13T02:32:57;10.55;;;9.48;;
703;SDS011;335;48.694;9.120;2022-11-13T02:35:26;9.50;;;8.60;;
703;SDS011;335;48.694;9.120;2022-11-13T02:37:59;11.43;;;10.27;;
703;SDS011;335;48.694;9.120;2022-11-13T02:40:25;10.45;;;9.50;;
703;SDS011;335;48.694;9.120;2022-11-13T02:42:51;10.18;;;9.18;;
703;SDS011;335;48.694;9.120;2022-11-13T02:45:17;10.23;;;9.20;;
703;SDS011;335;48.694;9.120;2022-11-13T02:47:42;9.73;;;8.77;;
703;SDS011;335;48.694;9.120;2022-11-13T02:50:08;9.20;;;8.30;;
703;SDS011;335;48.694;9.120;2022-11-13T02:52:34;10.32;;;8.77;;
703;SDS011;335;48.694;9.120;2022-11-13T02:54:59;9.87;;;8.87;;
703;SDS011;335;48.694;9.120;2022-11-13T02:57:26;11.50;;;8.75;;
703;SDS011;335;48.694;9.120;2022-11-13T02:59:52;8.77;;;7.97;;
703;SDS011;335;48.694;9.120;2022-11-13T03:02:17;9.30;;;8.43;;
703;SDS011;335;48.694;9.120;2022-11-13T03:04:42;8.43;;;7.63;;
703;SDS011;335;48.694;9.120;2022-11-13T03:07:08;10.50;;;9.50;;
703;SDS011;335;48.694;9.120;2022-11-13T03:09:34;9.97;;;9.07;;
703;SDS011;335;48.694;9.120;2022-11-13T03:11:59;9.87;;;9.07;;
703;SDS011;335;48.694;9.120;2022-11-13T03:14:24;9.57;;;8.77;;
703;SDS011;335;48.694;9.120;2022-11-13T03:16:50;10.03;;;9.17;;
703;SDS011;335;48.694;9.120;2022-11-13T03:19:15;10.93;;;9.83;;
703;SDS011;335;48.694;9.120;2022-11-13T03:21:40;8.87;;;8.17;;
703;SDS011;335;48.694;9.120;2022-11-13T03:24:06;11.40;;;10.30;;
703;SDS011;335;48.694;9.120;2022-11-13T03:26:31;10.80;;;9.77;;
703;SDS011;335;48.694;9.120;2022-11-13T03:28:57;10.70;;;9.67;;
703;SDS011;335;48.694;9.120;2022-11-13T03:31:22;11.73;;;10.63;;
703;SDS011;335;48.694;9.120;2022-11-13T03:33:50;10.70;;;9.70;;
703;SDS011;335;48.694;9.120;2022-11-13T03:36:16;11.75;;;10.55;;
703;SDS011;335;48.694;9.120;2022-11-13T03:38:41;9.60;;;8.70;;
703;SDS011;335;48.694;9.120;2022-11-13T03:41:07;10.00;;;9.17;;
703;SDS011;335;48.694;9.120;2022-11-13T03:43:32;11.90;;;9.97;;
703;SDS011;335;48.694;9.120;2022-11-13T03:45:57;10.33;;;9.33;;
703;SDS011;335;48.694;9.120;2022-11-13T03:48:23;10.17;;;9.27;;
703;SDS011;335;48.694;9.120;2022-11-13T03:50:50;10.17;;;9.23;;
703;SDS011;335;48.694;9.120;2022-11-13T03:53:17;11.18;;;10.18;;
703;SDS011;335;48.694;9.120;2022-11-13T03:55:42;11.87;;;10.33;;
703;SDS011;335;48.694;9.120;2022-11-13T03:58:08;8.87;;;8.17;;
703;SDS011;335;48.694;9.120;2022-11-13T04:00:33;9.97;;;9.07;;
703;SDS011;335;48.694;9.120;2022-11-13T04:02:59;8.70;;;7.90;;
703;SDS011;335;48.694;9.120;2022-11-13T04:05:25;10.17;;;9.10;;
703;SDS011;335;48.694;9.120;2022-11-13T04:07:50;8.20;;;7.50;;
703;SDS011;335;48.694;9.120;2022-11-13T04:10:16;9.10;;;8.23;;
703;SDS011;335;48.694;9.120;2022-11-13T04:12:41;10.07;;;9.10;;
703;SDS011;335;48.694;9.120;2022-11-13T04:15:07;10.37;;;9.47;;
703;SDS011;335;48.694;9.120;2022-11-13T04:17:32;10.00;;;9.00;;
703;SDS011;335;48.694;9.120;2022-11-13T04:19:57;7.97;;;7.27;;
703;SDS011;335;48.694;9.120;2022-11-13T04:22:23;9.00;;;8.10;;
703;SDS011;335;48.694;9.120;2022-11-13T04:24:48;9.20;;;8.27;;
703;SDS011;335;48.694;9.120;2022-11-13T04:27:14;9.00;;;8.20;;
703;SDS011;335;48.694;9.120;2022-11-13T04:29:39;8.47;;;7.77;;
703;SDS011;335;48.694;9.120;2022-11-13T04:32:05;9.33;;;8.33;;
703;SDS011;335;48.694;9.120;2022-11-13T04:34:30;10.20;;;9.20;;
703;SDS011;335;48.694;9.120;2022-11-13T04:36:55;10.50;;;9.17;;
703;SDS011;335;48.694;9.120;2022-11-13T04:39:21;8.87;;;8.17;;
703;SDS011;335;48.694;9.120;2022-11-13T04:41:46;9.20;;;8.43;;
703;SDS011;335;48.694;9.120;2022-11-13T04:44:30;9.02;;;8.13;;
703;SDS011;335;48.694;9.120;2022-11-13T04:46:55;8.97;;;8.23;;
703;SDS011;335;48.694;9.120;2022-11-13T04:49:21;8.97;;;8.07;;
703;SDS011;335;48.694;9.120;2022-11-13T04:51:46;8.60;;;7.80;;
703;SDS011;335;48.694;9.120;2022-11-13T04:54:11;7.97;;;7.27;;
703;SDS011;335;48.694;9.120;2022-11-13T04:56:37;8.83;;;7.93;;
703;SDS011;335;48.694;9.120;2022-11-13T04:59:02;8.97;;;7.80;;
703;SDS011;335;48.694;9.120;2022-11-13T05:01:28;10.40;;;8.00;;
703;SDS011;335;48.694;9.120;2022-11-13T05:03:53;7.97;;;7.33;;
703;SDS011;335;48.694;9.120;2022-11-13T05:06:18;8.93;;;8.20;;
703;SDS011;335;48.694;9.120;2022-11-13T05:08:44;8.50;;;7.60;;
703;SDS011;335;48.694;9.120;2022-11-13T05:11:09;8.20;;;6.60;;
703;SDS011;335;48.694;9.120;2022-11-13T05:13:35;7.27;;;6.57;;
703;SDS011;335;48.694;9.120;2022-11-13T05:18:27;8.05;;;7.30;;
703;SDS011;335;48.694;9.120;2022-11-13T05:20:52;7.87;;;7.07;;
703;SDS011;335;48.694;9.120;2022-11-13T05:23:17;9.70;;;8.50;;
703;SDS011;335;48.694;9.120;2022-11-13T05:25:43;8.20;;;7.40;;
703;SDS011;335;48.694;9.120;2022-11-13T05:28:08;8.80;;;8.00;;
703;SDS011;335;48.694;9.120;2022-11-13T05:30:33;7.10;;;6.50;;
703;SDS011;335;48.694;9.120;2022-11-13T05:32:58;7.87;;;7.07;;
703;SDS011;335;48.694;9.120;2022-11-13T05:35:24;7.13;;;6.60;;
703;SDS011;335;48.694;9.120;2022-11-13T05:37:49;8.20;;;7.40;;
703;SDS011;335;48.694;9.120;2022-11-13T05:40:14;9.20;;;8.37;;
703;SDS011;335;48.694;9.120;2022-11-13T05:42:40;10.00;;;7.20;;
703;SDS011;335;48.694;9.120;2022-11-13T05:45:05;6.33;;;5.83;;
703;SDS011;335;48.694;9.120;2022-11-13T05:47:31;8.70;;;7.80;;
703;SDS011;335;48.694;9.120;2022-11-13T05:49:57;8.17;;;7.47;;
703;SDS011;335;48.694;9.120;2022-11-13T05:52:22;7.97;;;7.00;;
703;SDS011;335;48.694;9.120;2022-11-13T05:54:47;7.47;;;6.87;;
703;SDS011;335;48.694;9.120;2022-11-13T05:57:13;8.60;;;7.70;;
703;SDS011;335;48.694;9.120;2022-11-13T05:59:38;8.60;;;7.70;;
703;SDS011;335;48.694;9.120;2022-11-13T06:02:03;7.80;;;7.10;;
703;SDS011;335;48.694;9.120;2022-11-13T06:04:29;9.50;;;8.20;;
703;SDS011;335;48.694;9.120;2022-11-13T06:06:54;7.53;;;6.83;;
703;SDS011;335;48.694;9.120;2022-11-13T06:09:19;8.20;;;7.50;;
703;SDS011;335;48.694;9.120;2022-11-13T06:11:45;8.67;;;7.87;;
703;SDS011;335;48.694;9.120;2022-11-13T06:14:10;8.87;;;8.03;;
703;SDS011;335;48.694;9.120;2022-11-13T06:16:36;8.57;;;7.50;;
703;SDS011;335;48.694;9.120;2022-11-13T06:19:04;8.15;;;7.40;;
703;SDS011;335;48.694;9.120;2022-11-13T06:21:31;7.72;;;7.00;;
703;SDS011;335;48.694;9.120;2022-11-13T06:23:57;9.40;;;8.50;;
703;SDS011;335;48.694;9.120;2022-11-13T06:26:24;9.88;;;8.57;;
703;SDS011;335;48.694;9.120;2022-11-13T06:28:57;9.88;;;8.88;;
703;SDS011;335;48.694;9.120;2022-11-13T06:31:24;12.10;;;10.88;;
703;SDS011;335;48.694;9.120;2022-11-13T06:33:51;12.05;;;10.13;;
703;SDS011;335;48.694;9.120;2022-11-13T06:36:20;10.00;;;9.10;;
703;SDS011;335;48.694;9.120;2022-11-13T06:38:47;10.63;;;9.52;;
703;SDS011;335;48.694;9.120;2022-11-13T06:41:14;8.98;;;8.10;;
703;SDS011;335;48.694;9.120;2022-11-13T06:43:41;9.10;;;8.13;;
703;SDS011;335;48.694;9.120;2022-11-13T06:46:09;9.48;;;8.52;;
703;SDS011;335;48.694;9.120;2022-11-13T06:48:36;8.95;;;8.07;;
703;SDS011;335;48.694;9.120;2022-11-13T06:51:03;8.13;;;7.33;;
703;SDS011;335;48.694;9.120;2022-11-13T06:53:29;10.30;;;7.60;;
703;SDS011;335;48.694;9.120;2022-11-13T06:55:55;9.30;;;8.40;;
703;SDS011;335;48.694;9.120;2022-11-13T06:58:21;11.30;;;10.20;;
703;SDS011;335;48.694;9.120;2022-11-13T07:00:46;10.80;;;9.80;;
703;SDS011;335;48.694;9.120;2022-11-13T07:03:23;11.47;;;10.33;;
703;SDS011;335;48.694;9.120;2022-11-13T07:05:50;12.15;;;10.93;;
703;SDS011;335;48.694;9.120;2022-11-13T07:08:16;11.47;;;10.47;;
703;SDS011;335;48.694;9.120;2022-11-13T07:10:41;11.82;;;10.65;;
703;SDS011;335;48.694;9.120;2022-11-13T07:13:07;10.27;;;9.37;;
703;SDS011;335;48.694;9.120;2022-11-13T07:15:36;10.67;;;9.67;;
703;SDS011;335;48.694;9.120;2022-11-13T07:18:03;12.27;;;11.07;;
703;SDS011;335;48.694;9.120;2022-11-13T07:20:29;11.15;;;10.23;;
703;SDS011;335;48.694;9.120;2022-11-13T07:22:56;11.20;;;10.30;;
703;SDS011;335;48.694;9.120;2022-11-13T07:25:21;10.80;;;9.85;;
703;SDS011;335;48.694;9.120;2022-11-13T07:27:47;10.20;;;9.30;;
703;SDS011;335;48.694;9.120;2022-11-13T07:30:12;12.40;;;11.20;;
703;SDS011;335;48.694;9.120;2022-11-13T07:32:38;12.13;;;10.93;;
703;SDS011;335;48.694;9.120;2022-11-13T07:35:03;12.30;;;11.20;;
703;SDS011;335;48.694;9.120;2022-11-13T07:37:29;10.70;;;9.80;;
703;SDS011;335;48.694;9.120;2022-11-13T07:39:54;11.80;;;10.60;;
703;SDS011;335;48.694;9.120;2022-11-13T07:42:19;10.63;;;9.67;;
703;SDS011;335;48.694;9.120;2022-11-13T07:44:45;11.70;;;10.60;;
703;SDS011;335;48.694;9.120;2022-11-13T07:47:10;10.60;;;9.60;;
703;SDS011;335;48.694;9.120;2022-11-13T07:49:35;9.70;;;8.80;;
703;SDS011;335;48.694;9.120;2022-11-13T07:52:00;9.83;;;8.90;;
703;SDS011;335;48.694;9.120;2022-11-13T07:54:26;9.93;;;9.03;;
703;SDS011;335;48.694;9.120;2022-11-13T07:56:51;10.70;;;9.80;;
703;SDS011;335;48.694;9.120;2022-11-13T07:59:18;9.30;;;8.50;;
703;SDS011;335;48.694;9.120;2022-11-13T08:01:43;12.35;;;11.25;;
703;SDS011;335;48.694;9.120;2022-11-13T08:04:08;11.73;;;10.63;;
703;SDS011;335;48.694;9.120;2022-11-13T08:06:37;12.53;;;11.40;;
703;SDS011;335;48.694;9.120;2022-11-13T08:09:03;11.57;;;10.40;;
703;SDS011;335;48.694;9.120;2022-11-13T08:11:28;12.63;;;11.53;;
703;SDS011;335;48.694;9.120;2022-11-13T08:13:54;12.77;;;11.60;;
703;SDS011;335;48.694;9.120;2022-11-13T08:16:19;14.10;;;12.67;;
703;SDS011;335;48.694;9.120;2022-11-13T08:18:44;13.43;;;12.13;;
703;SDS011;335;48.694;9.120;2022-11-13T08:21:10;17.03;;;13.10;;
703;SDS011;335;48.694;9.120;2022-11-13T08:23:35;28.17;;;20.10;;
703;SDS011;335;48.694;9.120;2022-11-13T08:26:04;20.00;;;15.57;;
703;SDS011;335;48.694;9.120;2022-11-13T08:28:30;14.47;;;12.83;;
703;SDS011;335;48.694;9.120;2022-11-13T08:30:55;10.30;;;9.30;;
703;SDS011;335;48.694;9.120;2022-11-13T08:33:21;8.60;;;7.90;;
703;SDS011;335;48.694;9.120;2022-11-13T08:35:53;5.00;;;4.80;;
703;SDS011;335;48.694;9.120;2022-11-13T08:38:19;5.17;;;4.87;;
703;SDS011;335;48.694;9.120;2022-11-13T08:40:44;4.97;;;4.70;;
703;SDS011;335;48.694;9.120;2022-11-13T08:43:09;4.83;;;4.53;;
703;SDS011;335;48.694;9.120;2022-11-13T08:45:35;6.23;;;5.83;;
703;SDS011;335;48.694;9.120;2022-11-13T08:48:00;4.90;;;4.70;;
703;SDS011;335;48.694;9.120;2022-11-13T08:50:27;5.60;;;5.30;;
703;SDS011;335;48.694;9.120;2022-11-13T08:52:57;5.37;;;5.07;;
703;SDS011;335;48.694;9.120;2022-11-13T08:55:23;6.80;;;6.40;;
703;SDS011;335;48.694;9.120;2022-11-13T08:57:49;6.33;;;5.97;;
703;SDS011;335;48.694;9.120;2022-11-13T09:00:15;6.40;;;5.97;;
703;SDS011;335;48.694;9.120;2022-11-13T09:02:40;5.27;;;4.97;;
703;SDS011;335;48.694;9.120;2022-11-13T09:05:06;5.50;;;5.20;;
703;SDS011;335;48.694;9.120;2022-11-13T09:07:32;5.47;;;5.20;;
703;SDS011;335;48.694;9.120;2022-11-13T09:09:57;5.07;;;4.77;;
703;SDS011;335;48.694;9.120;2022-11-13T09:12:22;4.80;;;4.60;;
703;SDS011;335;48.694;9.120;2022-11-13T09:14:48;4.87;;;4.50;;
703;SDS011;335;48.694;9.120;2022-11-13T09:17:13;4.50;;;4.30;;
703;SDS011;335;48.694;9.120;2022-11-13T09:19:38;4.27;;;4.03;;
703;SDS011;335;48.694;9.120;2022-11-13T09:22:04;4.87;;;4.57;;
703;SDS011;335;48.694;9.120;2022-11-13T09:24:29;4.47;;;4.17;;
703;SDS011;335;48.694;9.120;2022-11-13T09:26:54;5.27;;;4.97;;
703;SDS011;335;48.694;9.120;2022-11-13T09:29:20;5.10;;;4.80;;
703;SDS011;335;48.694;9.120;2022-11-13T09:31:47;4.63;;;4.43;;
703;SDS011;335;48.694;9.120;2022-11-13T09:34:13;5.00;;;4.70;;
703;SDS011;335;48.694;9.120;2022-11-13T09:36:38;5.37;;;5.07;;
703;SDS011;335;48.694;9.120;2022-11-13T09:39:04;5.77;;;5.43;;
703;SDS011;335;48.694;9.120;2022-11-13T09:41:30;9.63;;;8.93;;
703;SDS011;335;48.694;9.120;2022-11-13T09:44:00;5.17;;;4.87;;
703;SDS011;335;48.694;9.120;2022-11-13T09:46:41;4.80;;;4.60;;
703;SDS011;335;48.694;9.120;2022-11-13T09:51:41;13.73;;;12.53;;
703;SDS011;335;48.694;9.120;2022-11-13T09:54:11;8.00;;;7.50;;
703;SDS011;335;48.694;9.120;2022-11-13T10:04:39;12.63;;;11.50;;
703;SDS011;335;48.694;9.120;2022-11-13T10:07:19;7.20;;;6.70;;
703;SDS011;335;48.694;9.120;2022-11-13T10:09:58;5.90;;;5.60;;
703;SDS011;335;48.694;9.120;2022-11-13T10:12:30;6.00;;;5.60;;
703;SDS011;335;48.694;9.120;2022-11-13T10:14:59;7.07;;;6.57;;
703;SDS011;335;48.694;9.120;2022-11-13T10:17:34;6.43;;;6.03;;
703;SDS011;335;48.694;9.120;2022-11-13T10:20:24;6.37;;;5.97;;
703;SDS011;335;48.694;9.120;2022-11-13T10:22:50;4.83;;;4.60;;
703;SDS011;335;48.694;9.120;2022-11-13T10:25:20;6.03;;;5.63;;
703;SDS011;335;48.694;9.120;2022-11-13T10:27:59;6.83;;;6.43;;
703;SDS011;335;48.694;9.120;2022-11-13T10:30:25;7.03;;;6.50;;
703;SDS011;335;48.694;9.120;2022-11-13T10:32:52;5.63;;;5.33;;
703;SDS011;335;48.694;9.120;2022-11-13T10:35:28;5.67;;;5.20;;
703;SDS011;335;48.694;9.120;2022-11-13T10:37:58;5.30;;;5.00;;
703;SDS011;335;48.694;9.120;2022-11-13T10:40:32;5.70;;;5.40;;
703;SDS011;335;48.694;9.120;2022-11-13T10:43:04;6.20;;;5.80;;
703;SDS011;335;48.694;9.120;2022-11-13T10:45:52;6.50;;;6.10;;
703;SDS011;335;48.694;9.120;2022-11-13T10:48:28;5.80;;;5.40;;
703;SDS011;335;48.694;9.120;2022-11-13T10:50:59;5.97;;;5.67;;
703;SDS011;335;48.694;9.120;2022-11-13T10:53:42;5.50;;;5.20;;
703;SDS011;335;48.694;9.120;2022-11-13T10:56:12;5.30;;;4.90;;
703;SDS011;335;48.694;9.120;2022-11-13T10:58:57;5.13;;;4.83;;
703;SDS011;335;48.694;9.120;2022-11-13T11:01:27;5.70;;;5.30;;
703;SDS011;335;48.694;9.120;2022-11-13T11:03:53;6.13;;;5.73;;
703;SDS011;335;48.694;9.120;2022-11-13T11:06:18;5.50;;;5.17;;
703;SDS011;335;48.694;9.120;2022-11-13T11:08:44;5.30;;;5.00;;
703;SDS011;335;48.694;9.120;2022-11-13T11:11:13;5.57;;;5.27;;
703;SDS011;335;48.694;9.120;2022-11-13T11:14:17;4.93;;;4.63;;
703;SDS011;335;48.694;9.120;2022-11-13T11:16:45;5.20;;;4.90;;
703;SDS011;335;48.694;9.120;2022-11-13T11:19:11;5.37;;;5.07;;
703;SDS011;335;48.694;9.120;2022-11-13T11:21:38;4.97;;;4.73;;
703;SDS011;335;48.694;9.120;2022-11-13T11:24:13;4.83;;;4.57;;
703;SDS011;335;48.694;9.120;2022-11-13T11:26:52;5.10;;;4.80;;
703;SDS011;335;48.694;9.120;2022-11-13T11:32:16;5.10;;;4.70;;
703;SDS011;335;48.694;9.120;2022-11-13T11:35:06;5.43;;;5.13;;
703;SDS011;335;48.694;9.120;2022-11-13T11:37:39;4.20;;;4.00;;
703;SDS011;335;48.694;9.120;2022-11-13T11:40:15;4.40;;;4.20;;
703;SDS011;335;48.694;9.120;2022-11-13T11:42:52;4.83;;;4.53;;
703;SDS011;335;48.694;9.120;2022-11-13T11:45:31;4.20;;;3.90;;
703;SDS011;335;48.694;9.120;2022-11-13T11:47:58;4.87;;;4.57;;
703;SDS011;335;48.694;9.120;2022-11-13T11:50:38;4.43;;;4.23;;
703;SDS011;335;48.694;9.120;2022-11-13T11:53:19;4.00;;;3.80;;
703;SDS011;335;48.694;9.120;2022-11-13T11:55:56;4.97;;;4.67;;
703;SDS011;335;48.694;9.120;2022-11-13T11:59:12;3.97;;;3.77;;
703;SDS011;335;48.694;9.120;2022-11-13T12:06:44;4.60;;;4.30;;
703;SDS011;335;48.694;9.120;2022-11-13T12:09:17;5.33;;;4.93;;
703;SDS011;335;48.694;9.120;2022-11-13T12:11:54;4.87;;;4.60;;
703;SDS011;335;48.694;9.120;2022-11-13T12:19:23;5.20;;;4.90;;
703;SDS011;335;48.694;9.120;2022-11-13T12:27:17;5.90;;;5.60;;
703;SDS011;335;48.694;9.120;2022-11-13T12:29:50;5.40;;;5.00;;
703;SDS011;335;48.694;9.120;2022-11-13T12:32:28;5.40;;;5.10;;
703;SDS011;335;48.694;9.120;2022-11-13T12:35:15;5.90;;;5.40;;
703;SDS011;335;48.694;9.120;2022-11-13T12:37:46;5.60;;;5.30;;
703;SDS011;335;48.694;9.120;2022-11-13T12:43:06;5.73;;;5.43;;
703;SDS011;335;48.694;9.120;2022-11-13T12:50:38;5.40;;;5.10;;
703;SDS011;335;48.694;9.120;2022-11-13T12:53:04;5.77;;;5.47;;
703;SDS011;335;48.694;9.120;2022-11-13T12:55:32;5.80;;;5.40;;
703;SDS011;335;48.694;9.120;2022-11-13T13:00:52;5.27;;;4.87;;
703;SDS011;335;48.694;9.120;2022-11-13T13:08:56;5.20;;;4.87;;
703;SDS011;335;48.694;9.120;2022-11-13T13:11:39;6.07;;;5.67;;
703;SDS011;335;48.694;9.120;2022-11-13T13:14:16;5.67;;;5.37;;
703;SDS011;335;48.694;9.120;2022-11-13T13:16:44;6.07;;;5.63;;
703;SDS011;335;48.694;9.120;2022-11-13T13:19:29;5.73;;;5.33;;
703;SDS011;335;48.694;9.120;2022-11-13T13:21:56;5.93;;;5.53;;
703;SDS011;335;48.694;9.120;2022-11-13T13:26:52;5.07;;;4.77;;
703;SDS011;335;48.694;9.120;2022-11-13T13:29:22;4.93;;;4.53;;
703;SDS011;335;48.694;9.120;2022-11-13T13:48:35;7.90;;;7.20;;
703;SDS011;335;48.694;9.120;2022-11-13T13:51:13;7.80;;;7.20;;
703;SDS011;335;48.694;9.120;2022-11-13T13:53:41;6.97;;;6.50;;
703;SDS011;335;48.694;9.120;2022-11-13T13:56:09;7.17;;;6.67;;
703;SDS011;335;48.694;9.120;2022-11-13T13:58:35;7.70;;;7.10;;
703;SDS011;335;48.694;9.120;2022-11-13T14:01:02;6.70;;;6.30;;
703;SDS011;335;48.694;9.120;2022-11-13T14:03:29;8.37;;;7.53;;
703;SDS011;335;48.694;9.120;2022-11-13T14:05:55;8.30;;;7.70;;
703;SDS011;335;48.694;9.120;2022-11-13T14:08:23;7.70;;;7.20;;
703;SDS011;335;48.694;9.120;2022-11-13T14:10:49;8.10;;;7.50;;
703;SDS011;335;48.694;9.120;2022-11-13T14:13:25;8.90;;;8.03;;
703;SDS011;335;48.694;9.120;2022-11-13T14:15:58;8.83;;;8.17;;
703;SDS011;335;48.694;9.120;2022-11-13T14:18:28;9.20;;;8.30;;
703;SDS011;335;48.694;9.120;2022-11-13T14:20:54;9.30;;;8.50;;
703;SDS011;335;48.694;9.120;2022-11-13T14:26:02;9.20;;;8.40;;
703;SDS011;335;48.694;9.120;2022-11-13T14:28:29;9.17;;;8.47;;
703;SDS011;335;48.694;9.120;2022-11-13T14:33:33;8.70;;;8.07;;
703;SDS011;335;48.694;9.120;2022-11-13T14:36:01;9.03;;;8.30;;
703;SDS011;335;48.694;9.120;2022-11-13T14:38:28;8.87;;;8.13;;
703;SDS011;335;48.694;9.120;2022-11-13T14:40:57;10.23;;;9.33;;
703;SDS011;335;48.694;9.120;2022-11-13T14:43:23;9.87;;;8.90;;
703;SDS011;335;48.694;9.120;2022-11-13T14:46:02;8.77;;;8.13;;
703;SDS011;335;48.694;9.120;2022-11-13T14:48:29;8.30;;;7.60;;
703;SDS011;335;48.694;9.120;2022-11-13T14:53:32;9.37;;;8.67;;
703;SDS011;335;48.694;9.120;2022-11-13T14:56:09;9.57;;;8.87;;
703;SDS011;335;48.694;9.120;2022-11-13T14:58:37;10.33;;;9.40;;
703;SDS011;335;48.694;9.120;2022-11-13T15:01:15;11.60;;;9.53;;
703;SDS011;335;48.694;9.120;2022-11-13T15:03:45;11.07;;;9.97;;
703;SDS011;335;48.694;9.120;2022-11-13T15:06:13;10.23;;;9.40;;
703;SDS011;335;48.694;9.120;2022-11-13T15:08:39;9.60;;;8.70;;
703;SDS011;335;48.694;9.120;2022-11-13T15:11:05;10.37;;;9.47;;
703;SDS011;335;48.694;9.120;2022-11-13T15:13:30;10.67;;;9.67;;
703;SDS011;335;48.694;9.120;2022-11-13T15:15:55;9.40;;;8.57;;
703;SDS011;335;48.694;9.120;2022-11-13T15:18:21;11.00;;;9.33;;
703;SDS011;335;48.694;9.120;2022-11-13T15:20:46;11.27;;;10.27;;
703;SDS011;335;48.694;9.120;2022-11-13T15:23:12;11.53;;;10.43;;
703;SDS011;335;48.694;9.120;2022-11-13T15:25:39;11.00;;;10.00;;
703;SDS011;335;48.694;9.120;2022-11-13T15:28:04;10.50;;;9.60;;
703;SDS011;335;48.694;9.120;2022-11-13T15:30:30;12.53;;;11.33;;
703;SDS011;335;48.694;9.120;2022-11-13T15:32:56;11.50;;;10.47;;
703;SDS011;335;48.694;9.120;2022-11-13T15:35:24;11.97;;;10.87;;
703;SDS011;335;48.694;9.120;2022-11-13T15:37:49;11.20;;;10.20;;
703;SDS011;335;48.694;9.120;2022-11-13T15:40:15;11.60;;;10.50;;
703;SDS011;335;48.694;9.120;2022-11-13T15:42:41;11.03;;;10.03;;
703;SDS011;335;48.694;9.120;2022-11-13T15:45:11;11.03;;;9.93;;
703;SDS011;335;48.694;9.120;2022-11-13T15:47:38;11.70;;;10.67;;
703;SDS011;335;48.694;9.120;2022-11-13T15:50:03;11.83;;;10.67;;
703;SDS011;335;48.694;9.120;2022-11-13T15:52:31;11.63;;;10.53;;
703;SDS011;335;48.694;9.120;2022-11-13T15:54:59;11.30;;;10.20;;
703;SDS011;335;48.694;9.120;2022-11-13T15:57:28;12.43;;;11.30;;
703;SDS011;335;48.694;9.120;2022-11-13T15:59:54;11.10;;;10.10;;
703;SDS011;335;48.694;9.120;2022-11-13T16:02:19;13.53;;;12.13;;
703;SDS011;335;48.694;9.120;2022-11-13T16:04:45;12.10;;;11.10;;
703;SDS011;335;48.694;9.120;2022-11-13T16:07:31;11.37;;;10.37;;
703;SDS011;335;48.694;9.120;2022-11-13T16:09:56;12.60;;;11.40;;
703;SDS011;335;48.694;9.120;2022-11-13T16:12:21;12.40;;;11.30;;
703;SDS011;335;48.694;9.120;2022-11-13T16:14:46;13.23;;;11.33;;
703;SDS011;335;48.694;9.120;2022-11-13T16:17:15;11.00;;;9.97;;
703;SDS011;335;48.694;9.120;2022-11-13T16:19:51;9.40;;;8.50;;
703;SDS011;335;48.694;9.120;2022-11-13T16:22:22;7.90;;;7.20;;
703;SDS011;335;48.694;9.120;2022-11-13T16:24:48;9.50;;;8.70;;
703;SDS011;335;48.694;9.120;2022-11-13T16:27:14;9.77;;;8.87;;
703;SDS011;335;48.694;9.120;2022-11-13T16:29:45;10.27;;;9.30;;
703;SDS011;335;48.694;9.120;2022-11-13T16:32:14;10.73;;;9.83;;
703;SDS011;335;48.694;9.120;2022-11-13T16:34:41;11.60;;;10.40;;
703;SDS011;335;48.694;9.120;2022-11-13T16:37:11;10.33;;;9.33;;
703;SDS011;335;48.694;9.120;2022-11-13T16:39:38;11.80;;;10.13;;
703;SDS011;335;48.694;9.120;2022-11-13T16:42:04;12.13;;;10.93;;
703;SDS011;335;48.694;9.120;2022-11-13T16:44:29;13.50;;;10.03;;
703;SDS011;335;48.694;9.120;2022-11-13T16:46:54;12.90;;;11.60;;
703;SDS011;335;48.694;9.120;2022-11-13T16:49:19;11.27;;;10.20;;
703;SDS011;335;48.694;9.120;2022-11-13T16:51:45;11.77;;;10.63;;
703;SDS011;335;48.694;9.120;2022-11-13T16:54:13;12.90;;;11.67;;
703;SDS011;335;48.694;9.120;2022-11-13T16:56:38;12.00;;;10.73;;
703;SDS011;335;48.694;9.120;2022-11-13T16:59:04;13.07;;;11.93;;